createdAt,value
2017-08-27T07:18:03.664Z,34.67
2017-08-27T07:20:31.285Z,34.78
2017-08-27T07:22:58.808Z,34.92
2017-08-27T07:25:26.379Z,34.94
2017-08-27T07:27:53.877Z,34.99
2017-08-27T07:30:21.404Z,35.08
2017-08-27T07:32:48.988Z,35.11
2017-08-27T07:35:16.482Z,35.11
2017-08-27T07:37:43.999Z,35.06
2017-08-27T07:40:11.556Z,35.03
2017-08-27T07:42:39.093Z,34.99
2017-08-27T07:45:06.657Z,35.04
2017-08-27T07:47:34.178Z,35.10
2017-08-27T07:50:01.662Z,35.14
2017-08-27T07:52:29.223Z,35.27
2017-08-27T07:54:56.812Z,35.36
2017-08-27T07:57:24.370Z,35.39
2017-08-27T07:59:51.888Z,35.50
2017-08-27T08:02:19.473Z,35.61
2017-08-27T08:04:47.004Z,35.66
2017-08-27T08:07:14.510Z,35.67
2017-08-27T08:09:42.058Z,35.67
2017-08-27T08:12:09.579Z,35.70
2017-08-27T08:14:37.175Z,35.70
2017-08-27T08:17:04.748Z,35.79
2017-08-27T08:19:32.277Z,35.88
2017-08-27T08:21:59.760Z,36.03
2017-08-27T08:24:27.287Z,36.16
2017-08-27T08:26:54.807Z,36.20
2017-08-27T08:29:22.282Z,36.36
2017-08-27T08:31:49.804Z,36.52
2017-08-27T08:34:17.315Z,36.76
2017-08-27T08:36:44.831Z,36.96
2017-08-27T08:39:12.459Z,37.21
2017-08-27T08:41:40.040Z,37.45
2017-08-27T08:44:07.518Z,37.65
2017-08-27T08:46:35.076Z,37.79
2017-08-27T08:49:02.598Z,37.87
2017-08-27T08:54:22.927Z,38.08
2017-08-27T08:56:50.471Z,38.16
2017-08-27T08:59:18.000Z,38.18
2017-08-27T09:01:45.559Z,38.20
2017-08-27T09:04:13.116Z,38.23
2017-08-27T09:06:40.667Z,38.29
2017-08-27T09:09:08.193Z,38.37
2017-08-27T09:11:35.713Z,38.52
2017-08-27T09:16:56.549Z,38.55
2017-08-27T09:19:24.166Z,38.53
2017-08-27T09:21:51.646Z,38.51
2017-08-27T09:24:19.310Z,38.53
2017-08-27T09:26:46.869Z,38.47
2017-08-27T09:29:14.365Z,38.45
2017-08-27T09:31:41.949Z,38.43
2017-08-27T09:34:09.481Z,38.40
2017-08-27T09:36:36.968Z,38.39
2017-08-27T09:39:04.596Z,38.45
2017-08-27T09:41:32.121Z,38.58
2017-08-27T09:43:59.680Z,38.75
2017-08-27T09:46:27.245Z,38.83
2017-08-27T09:48:54.760Z,38.84
2017-08-27T09:51:22.564Z,38.74
2017-08-27T09:53:50.126Z,38.59
2017-08-27T09:56:17.672Z,38.50
2017-08-27T09:58:45.227Z,38.40
2017-08-27T10:01:12.746Z,38.35
2017-08-27T10:03:40.266Z,38.39
2017-08-27T10:06:08.548Z,38.54
2017-08-27T10:08:36.149Z,38.66
2017-08-27T10:11:03.661Z,38.63
2017-08-27T10:13:31.309Z,38.49
2017-08-27T10:15:58.907Z,38.50
2017-08-27T10:18:26.451Z,38.55
2017-08-27T10:20:53.977Z,38.44
2017-08-27T10:23:21.541Z,38.36
2017-08-27T10:25:49.098Z,38.30
2017-08-27T10:28:16.593Z,38.24
2017-08-27T10:30:44.194Z,38.19
2017-08-27T10:35:44.500Z,38.07
2017-08-27T10:38:12.034Z,38.07
2017-08-27T10:40:39.593Z,38.03
2017-08-27T10:43:07.149Z,37.91
2017-08-27T10:45:34.697Z,37.78
2017-08-27T10:48:02.254Z,37.70
2017-08-27T10:50:29.778Z,37.56
2017-08-27T10:52:57.270Z,37.42
2017-08-27T10:55:24.797Z,37.38
2017-08-27T10:57:52.360Z,37.38
2017-08-27T11:00:19.884Z,37.39
2017-08-27T11:02:47.440Z,37.44
2017-08-27T11:05:14.962Z,37.49
2017-08-27T11:07:42.508Z,37.47
2017-08-27T11:10:09.982Z,37.45
2017-08-27T11:12:37.502Z,37.44
2017-08-27T11:15:05.036Z,37.32
2017-08-27T11:17:32.593Z,37.18
2017-08-27T11:20:00.168Z,37.06
2017-08-27T11:22:27.652Z,37.01
2017-08-27T11:24:55.195Z,37.02
2017-08-27T11:27:22.726Z,37.04
2017-08-27T11:29:50.276Z,37.03
2017-08-27T11:32:17.911Z,36.97
2017-08-27T11:34:45.500Z,37.02
2017-08-27T11:37:13.021Z,37.04
2017-08-27T11:39:40.558Z,37.05
2017-08-27T11:42:08.143Z,37.08
2017-08-27T11:44:35.673Z,37.09
2017-08-27T11:47:03.219Z,37.02
2017-08-27T11:49:30.773Z,36.83
2017-08-27T11:51:58.392Z,36.64
2017-08-27T11:54:25.933Z,36.47
2017-08-27T11:56:53.584Z,36.39
2017-08-27T11:59:21.505Z,36.37
2017-08-27T12:01:49.023Z,36.32
2017-08-27T12:04:16.609Z,36.26
2017-08-27T12:06:44.272Z,36.26
2017-08-27T12:09:11.831Z,36.28
2017-08-27T12:11:39.400Z,36.24
2017-08-27T12:14:06.973Z,36.18
2017-08-27T12:16:34.446Z,36.09
2017-08-27T12:19:02.024Z,36.03
2017-08-27T12:21:29.513Z,36.03
2017-08-27T12:23:57.059Z,35.96
2017-08-27T12:26:24.628Z,35.93
2017-08-27T12:28:52.118Z,35.90
2017-08-27T12:31:19.648Z,35.76
2017-08-27T12:33:47.282Z,35.73
2017-08-27T12:36:14.808Z,35.72
2017-08-27T12:38:42.377Z,35.60
2017-08-27T12:41:09.958Z,35.46
2017-08-27T12:43:37.521Z,35.39
2017-08-27T12:46:05.164Z,35.31
2017-08-27T12:48:32.743Z,35.24
2017-08-27T12:51:00.227Z,35.12
2017-08-27T12:53:27.716Z,34.97
2017-08-27T12:55:55.317Z,34.88
2017-08-27T12:58:22.811Z,34.69
2017-08-27T13:00:50.374Z,34.61
2017-08-27T13:03:17.941Z,34.59
2017-08-27T13:05:45.455Z,34.58
2017-08-27T13:08:12.950Z,34.56
2017-08-27T13:10:40.540Z,34.53
2017-08-27T13:13:08.097Z,34.51
2017-08-27T13:15:35.623Z,34.49
2017-08-27T13:18:03.182Z,34.45
2017-08-27T13:20:30.717Z,34.37
2017-08-27T13:22:58.254Z,34.31
2017-08-27T13:25:25.835Z,34.25
2017-08-27T13:27:53.376Z,34.18
2017-08-27T13:30:20.870Z,34.12
2017-08-27T13:32:48.489Z,34.08
2017-08-27T13:35:16.037Z,33.98
2017-08-27T13:37:43.563Z,33.92
2017-08-27T13:40:11.164Z,33.88
2017-08-27T13:42:38.675Z,33.81
2017-08-27T13:45:06.191Z,33.74
2017-08-27T13:47:33.776Z,33.65
2017-08-27T13:50:01.288Z,33.61
2017-08-27T13:52:28.802Z,33.56
2017-08-27T13:54:57.049Z,33.54
2017-08-27T13:57:24.563Z,33.52
2017-08-27T13:59:52.075Z,33.49
2017-08-27T14:02:19.615Z,33.47
2017-08-27T14:04:47.140Z,33.43
2017-08-27T14:07:14.618Z,33.40
2017-08-27T14:09:42.179Z,33.37
2017-08-27T14:12:09.708Z,33.33
2017-08-27T14:14:37.241Z,33.30
2017-08-27T14:17:04.769Z,33.23
2017-08-27T14:19:32.295Z,33.20
2017-08-27T14:21:59.831Z,33.16
2017-08-27T14:24:27.437Z,33.12
2017-08-27T14:26:54.969Z,33.08
2017-08-27T14:29:22.496Z,33.03
2017-08-27T14:31:50.023Z,32.98
2017-08-27T14:34:17.887Z,32.91
2017-08-27T14:36:45.370Z,32.88
2017-08-27T14:39:12.967Z,32.84
2017-08-27T14:41:40.471Z,32.79
2017-08-27T14:44:07.962Z,32.69
2017-08-27T14:46:35.492Z,32.71
2017-08-27T14:49:03.020Z,32.63
2017-08-27T14:51:30.584Z,32.62
2017-08-27T14:53:58.105Z,32.62
2017-08-27T14:56:25.638Z,32.56
2017-08-27T14:58:53.168Z,32.54
2017-08-27T15:01:20.780Z,32.53
2017-08-27T15:03:48.332Z,32.51
2017-08-27T15:06:15.813Z,32.50
2017-08-27T15:08:43.388Z,32.43
2017-08-27T15:11:10.901Z,32.38
2017-08-27T15:13:38.514Z,32.33
2017-08-27T15:16:06.032Z,32.30
2017-08-27T15:18:33.636Z,32.28
2017-08-27T15:21:01.188Z,32.26
2017-08-27T15:23:28.768Z,32.20
2017-08-27T15:25:56.324Z,32.20
2017-08-27T15:28:23.948Z,32.17
2017-08-27T15:30:51.474Z,32.12
2017-08-27T15:33:19.081Z,32.12
2017-08-27T15:35:46.621Z,32.09
2017-08-27T15:38:14.246Z,32.06
2017-08-27T15:40:41.757Z,32.05
2017-08-27T15:43:09.277Z,32.03
2017-08-27T15:45:36.843Z,32.00
2017-08-27T15:48:04.366Z,31.97
2017-08-27T15:50:31.916Z,31.94
2017-08-27T15:52:59.482Z,31.90
2017-08-27T15:55:26.995Z,31.84
2017-08-27T15:57:54.545Z,31.80
2017-08-27T16:00:22.690Z,31.79
2017-08-27T16:02:50.211Z,31.77
2017-08-27T16:05:17.718Z,31.74
2017-08-27T16:07:45.330Z,31.66
2017-08-27T16:10:12.911Z,31.61
2017-08-27T16:12:40.392Z,31.57
2017-08-27T16:15:08.603Z,31.50
2017-08-27T16:17:36.140Z,31.47
2017-08-27T16:20:03.683Z,31.41
2017-08-27T16:22:31.283Z,31.38
2017-08-27T16:24:58.843Z,31.34
2017-08-27T16:27:26.350Z,31.28
2017-08-27T16:29:53.923Z,31.25
2017-08-27T16:32:21.432Z,31.19
2017-08-27T16:34:48.978Z,31.15
2017-08-27T16:37:16.515Z,31.12
2017-08-27T16:39:44.476Z,31.09
2017-08-27T16:42:12.039Z,31.05
2017-08-27T16:44:39.620Z,31.00
2017-08-27T16:47:29.835Z,30.95
2017-08-27T16:49:57.413Z,30.91
2017-08-27T16:52:24.896Z,30.85
2017-08-27T16:54:52.492Z,30.81
2017-08-27T16:57:20.184Z,30.78
2017-08-27T16:59:47.760Z,30.73
2017-08-27T17:02:15.254Z,30.67
2017-08-27T17:04:42.796Z,30.61
2017-08-27T17:07:10.372Z,30.53
2017-08-27T17:09:37.913Z,30.47
2017-08-27T17:12:05.502Z,30.40
2017-08-27T17:14:33.034Z,30.35
2017-08-27T17:17:00.558Z,30.29
2017-08-27T17:19:28.116Z,30.22
2017-08-27T17:21:55.652Z,30.17
2017-08-27T17:24:23.212Z,30.10
2017-08-27T17:26:50.810Z,30.01
2017-08-27T17:29:18.367Z,29.93
2017-08-27T17:31:45.896Z,29.88
2017-08-27T17:34:13.450Z,29.81
2017-08-27T17:36:41.099Z,29.74
2017-08-27T17:39:08.630Z,29.68
2017-08-27T17:41:36.168Z,29.61
2017-08-27T17:44:03.710Z,29.53
2017-08-27T17:46:31.214Z,29.45
2017-08-27T17:48:58.749Z,29.40
2017-08-27T17:51:26.254Z,29.33
2017-08-27T17:53:53.812Z,29.28
